< < Back
Terminal Aerodrome Forecast


Current Version              Previous Versions:   1  2  3  4  5  6  7  8  9  

Terminal Aerodrome Forecast

815
FTUS44 KOHX 011700
TAFBNA
TAF
KBNA 011731Z 0118/0218 10007KT P6SM SCT250
     FM020000 13007KT P6SM SCT060 BKN150
     FM020900 17010KT P6SM BKN060
     FM021300 19015G27KT P6SM VCSH BKN035 BKN060=



Latest METAR

465
SAUS70 KWBC 020600 RRA
MTRBNA
METAR KBNA 020553Z COR 14006KT 10SM SCT055 17/02 A2999 RMK AO2 SLP149
T01720022 10211 20150 402440094 58016


USA.gov is the U.S. government's official web portal to all federal, state and local government web resources and services.